Time;durP1;ratioP1;P1;durP2;ratioP2;P2;SDS_P1;SDS_P2;PMS_P1;PMS_P2;Temp;Humidity;BMP_temperature;BMP_pressure;BME280_temperature;BME280_humidity;BME280_pressure;Samples;Min_cycle;Max_cycle;Signal;HPM_P1;HPM_P2
2023/07/06 00:01:21;;;;;;;10.55;4.65;;;;;;;-142.57;84.75;115900.28;6254939;23;20351;-87
2023/07/06 00:03:47;;;;;;;12.40;4.72;;;;;;;-142.57;86.57;115900.28;6228699;23;20034;-86
2023/07/06 00:06:13;;;;;;;12.10;4.30;;;;;;;-142.57;88.37;115900.28;6253969;23;20000;-85
2023/07/06 00:08:39;;;;;;;11.18;4.38;;;;;;;-142.57;88.84;115900.28;6254491;23;20346;-85
2023/07/06 00:11:04;;;;;;;11.55;4.80;;;;;;;-142.57;88.33;115900.28;6230180;23;20020;-85
2023/07/06 00:13:32;;;;;;;10.40;4.25;;;;;;;-142.57;87.96;115900.28;6256847;23;20068;-86
2023/07/06 00:16:02;;;;;;;12.13;4.63;;;;;;;-142.57;90.16;115900.28;6255885;23;20042;-84
2023/07/06 00:18:29;;;;;;;10.63;4.18;;;;;;;-142.57;92.26;115900.28;6228445;23;20364;-85
2023/07/06 00:20:55;;;;;;;11.23;4.18;;;;;;;-142.57;92.22;115900.28;6230445;23;20022;-84
2023/07/06 00:23:23;;;;;;;13.73;5.07;;;;;;;-142.57;90.56;115900.28;6242050;23;20016;-84
2023/07/06 00:25:48;;;;;;;13.02;4.82;;;;;;;-142.57;90.19;115900.28;6269375;23;20056;-84
2023/07/06 00:28:14;;;;;;;12.93;4.45;;;;;;;-142.57;90.02;115900.28;6269815;23;20019;-83
2023/07/06 00:30:52;;;;;;;16.30;5.00;;;;;;;-142.57;90.98;115900.28;6269364;23;20004;-84
2023/07/06 00:33:21;;;;;;;10.63;4.07;;;;;;;-142.57;90.32;115900.28;6268863;23;20058;-83
2023/07/06 00:35:47;;;;;;;12.20;4.38;;;;;;;-142.57;89.25;115900.28;6268803;23;20064;-82
2023/07/06 00:38:16;;;;;;;10.10;4.47;;;;;;;-142.57;88.37;115900.28;6242428;23;20015;-84
2023/07/06 00:40:44;;;;;;;16.67;4.80;;;;;;;-142.57;90.20;115900.28;6241878;23;20012;-83
2023/07/06 00:43:15;;;;;;;10.15;4.47;;;;;;;-142.57;90.43;115900.28;6268354;23;20030;-84
2023/07/06 00:45:42;;;;;;;8.30;3.28;;;;;;;-142.57;89.57;115900.28;6268022;23;20009;-83
2023/07/06 00:48:21;;;;;;;14.63;4.75;;;;;;;-142.57;88.92;115900.28;6240764;23;20012;-83
2023/07/06 00:50:55;;;;;;;7.90;4.35;;;;;;;-142.57;88.25;115900.28;6216629;23;20012;-83
2023/07/06 00:53:23;;;;;;;15.52;4.78;;;;;;;-142.57;88.71;115900.28;6217974;23;20011;-83
2023/07/06 00:55:51;;;;;;;10.82;4.78;;;;;;;-142.57;87.79;115900.28;6217556;23;20035;-84
2023/07/06 00:58:28;;;;;;;13.05;4.55;;;;;;;-142.57;88.62;115900.28;6268799;23;20008;-84
2023/07/06 01:00:57;;;;;;;11.60;4.35;;;;;;;-142.57;88.82;115900.28;6267621;23;20016;-85
2023/07/06 01:03:23;;;;;;;11.48;4.63;;;;;;;-142.57;89.63;115900.28;6259936;23;20012;-84
2023/07/06 01:05:55;;;;;;;12.57;4.78;;;;;;;-142.57;90.53;115900.28;6258768;23;20024;-85
2023/07/06 01:08:23;;;;;;;11.50;4.95;;;;;;;-142.57;89.90;115900.28;6230040;23;20012;-85
2023/07/06 01:10:49;;;;;;;11.20;4.15;;;;;;;-142.57;89.34;115900.28;6206076;23;20031;-85
2023/07/06 01:13:15;;;;;;;10.90;4.53;;;;;;;-142.57;89.45;115900.28;6256810;23;20012;-85
2023/07/06 01:15:48;;;;;;;9.27;4.45;;;;;;;-142.57;89.51;115900.28;6259504;23;20064;-86
2023/07/06 01:18:27;;;;;;;;;;;;;;;-142.57;90.70;115900.28;6230044;23;20447;-86
2023/07/06 01:21:38;;;;;;;12.65;4.55;;;;;;;-142.57;89.66;115900.28;6229401;23;20000;-85
2023/07/06 01:24:14;;;;;;;11.68;4.28;;;;;;;-142.57;90.21;115900.28;6216521;23;20151;-86
2023/07/06 01:27:14;;;;;;;10.43;4.28;;;;;;;-142.57;90.85;115900.28;6253833;23;20016;-86
2023/07/06 01:30:08;;;;;;;10.20;4.43;;;;;;;-142.57;91.77;115900.28;6199484;23;20022;-86
2023/07/06 01:32:39;;;;;;;10.43;4.25;;;;;;;-142.57;91.68;115900.28;6252698;23;20159;-86
2023/07/06 01:35:10;;;;;;;9.90;4.20;;;;;;;-142.57;90.80;115900.28;6224660;23;20004;-84
2023/07/06 01:37:42;;;;;;;12.65;4.57;;;;;;;-142.57;92.75;115900.28;6200736;23;20062;-86
2023/07/06 01:40:11;;;;;;;13.45;4.65;;;;;;;-142.57;95.33;115900.28;6249882;23;20016;-87
2023/07/06 01:42:41;;;;;;;10.93;4.40;;;;;;;-142.57;96.95;115900.28;6224847;23;20004;-83
2023/07/06 01:45:10;;;;;;;9.77;4.72;;;;;;;-142.57;99.13;115900.28;6222921;23;20004;-84
2023/07/06 01:47:43;;;;;;;12.35;5.10;;;;;;;-142.57;100.00;115900.28;6250860;23;20089;-84
2023/07/06 01:50:12;;;;;;;12.32;4.57;;;;;;;-142.57;100.00;115900.28;6223010;23;20012;-85
2023/07/06 01:52:57;;;;;;;11.30;4.90;;;;;;;-142.57;100.00;115900.28;6222210;23;20008;-84
2023/07/06 01:55:31;;;;;;;11.45;5.00;;;;;;;-142.57;100.00;115900.28;6246589;23;20098;-85
2023/07/06 01:58:04;;;;;;;12.48;5.45;;;;;;;-142.57;100.00;115900.28;6219920;23;20343;-84
2023/07/06 02:00:31;;;;;;;13.77;4.70;;;;;;;-142.57;100.00;115900.28;6219999;23;20020;-83
2023/07/06 02:02:59;;;;;;;7.53;4.63;;;;;;;-142.57;100.00;115900.28;6247144;23;20038;-87
2023/07/06 02:05:26;;;;;;;19.10;5.10;;;;;;;-142.57;100.00;115900.28;6246194;23;20511;-86
2023/07/06 02:07:52;;;;;;;10.05;4.95;;;;;;;-142.57;100.00;115900.28;6219279;23;20016;-84
2023/07/06 02:10:19;;;;;;;9.43;5.18;;;;;;;-142.57;100.00;115900.28;6219737;23;20016;-86
2023/07/06 02:12:47;;;;;;;14.90;4.55;;;;;;;-142.57;100.00;115900.28;6220158;23;20051;-83
2023/07/06 02:15:16;;;;;;;15.35;4.38;;;;;;;-142.57;100.00;115900.28;6247066;23;20076;-86
2023/07/06 02:18:02;;;;;;;13.30;4.97;;;;;;;-142.57;100.00;115900.28;6246855;23;20300;-86
2023/07/06 02:20:28;;;;;;;11.32;4.65;;;;;;;-142.57;100.00;115900.28;6219371;23;20019;-84
2023/07/06 02:22:53;;;;;;;11.15;4.55;;;;;;;-142.57;100.00;115900.28;6219385;23;20004;-85
2023/07/06 02:25:20;;;;;;;18.10;4.57;;;;;;;-142.57;100.00;115900.28;6246900;23;20012;-84
2023/07/06 02:27:47;;;;;;;13.45;4.47;;;;;;;-142.57;100.00;115900.28;6246936;23;20343;-86
2023/07/06 02:30:12;;;;;;;11.90;4.97;;;;;;;-142.57;100.00;115900.28;6225102;23;20320;-86
2023/07/06 02:32:39;;;;;;;10.55;4.72;;;;;;;-142.57;100.00;115900.28;6252476;23;20007;-86
2023/07/06 02:35:07;;;;;;;13.07;4.55;;;;;;;-142.57;100.00;115900.28;6252304;23;20074;-85
2023/07/06 02:37:32;;;;;;;11.95;4.40;;;;;;;-142.57;100.00;115900.28;6252691;23;20180;-85
2023/07/06 02:40:00;;;;;;;11.95;4.63;;;;;;;-142.57;100.00;115900.28;6251028;23;20101;-85
2023/07/06 02:42:28;;;;;;;12.85;4.82;;;;;;;-142.57;100.00;115900.28;6224777;23;20015;-86
2023/07/06 02:44:57;;;;;;;10.75;4.40;;;;;;;-142.57;100.00;115900.28;6251548;23;20008;-85
2023/07/06 02:47:22;;;;;;;8.25;4.43;;;;;;;-142.57;100.00;115900.28;6225256;23;20012;-85
2023/07/06 02:49:48;;;;;;;10.82;4.93;;;;;;;-142.57;100.00;115900.28;6253757;23;20015;-84
2023/07/06 02:52:16;;;;;;;9.13;4.43;;;;;;;-142.57;100.00;115900.28;6251721;23;20407;-84
2023/07/06 02:54:41;;;;;;;10.38;5.00;;;;;;;-142.57;99.84;115900.28;6224190;23;20068;-86
2023/07/06 02:57:31;;;;;;;11.00;4.47;;;;;;;-142.57;99.34;115900.28;6226048;23;20092;-85
2023/07/06 02:59:57;;;;;;;11.98;4.90;;;;;;;-142.57;97.98;115900.28;6251666;23;20022;-86
2023/07/06 03:02:23;;;;;;;9.80;4.57;;;;;;;-142.57;97.74;115900.28;6251744;23;20087;-86
2023/07/06 03:04:51;;;;;;;15.30;4.97;;;;;;;-142.57;99.75;115900.28;6224460;23;20047;-85
2023/07/06 03:07:18;;;;;;;9.15;4.32;;;;;;;-142.57;100.00;115900.28;6251601;23;20039;-86
2023/07/06 03:09:44;;;;;;;10.57;4.63;;;;;;;-142.57;100.00;115900.28;6224126;23;20097;-86
2023/07/06 03:12:10;;;;;;;16.92;5.10;;;;;;;-142.57;100.00;115900.28;6250652;23;20012;-84
2023/07/06 03:14:35;;;;;;;12.85;5.40;;;;;;;-142.57;99.56;115900.28;6250808;23;20316;-85
2023/07/06 03:17:03;;;;;;;12.07;4.65;;;;;;;-142.57;98.49;115900.28;6250582;23;20506;-86
2023/07/06 03:19:29;;;;;;;10.38;5.32;;;;;;;-142.57;98.46;115900.28;6218908;23;20043;-86
2023/07/06 03:21:58;;;;;;;15.50;5.25;;;;;;;-142.57;98.73;115900.28;6246121;23;20019;-85
2023/07/06 03:24:24;;;;;;;12.02;5.40;;;;;;;-142.57;99.06;115900.28;6218842;23;20036;-84
2023/07/06 03:26:52;;;;;;;10.48;4.47;;;;;;;-142.57;98.12;115900.28;6246232;23;20012;-85
2023/07/06 03:29:17;;;;;;;15.00;5.05;;;;;;;-142.57;97.03;115900.28;6245902;23;20016;-86
2023/07/06 03:31:44;;;;;;;12.00;5.15;;;;;;;-142.57;97.08;115900.28;6218955;23;20016;-85
2023/07/06 03:34:10;;;;;;;9.88;4.68;;;;;;;-142.57;98.10;115900.28;6245972;23;20000;-85
2023/07/06 03:36:38;;;;;;;11.70;4.57;;;;;;;-142.57;98.65;115900.28;6246040;23;20058;-85
2023/07/06 03:39:05;;;;;;;13.27;5.10;;;;;;;-142.57;98.42;115900.28;6245539;23;20018;-84
2023/07/06 03:41:31;;;;;;;11.07;5.18;;;;;;;-142.57;97.87;115900.28;6245383;23;20043;-84
2023/07/06 03:43:58;;;;;;;20.98;8.80;;;;;;;-142.57;100.00;115900.28;6245652;23;20016;-85
2023/07/06 03:46:33;;;;;;;13.90;7.82;;;;;;;-142.57;100.00;115900.28;6218340;23;20513;-84
2023/07/06 03:49:04;;;;;;;14.35;8.55;;;;;;;-142.57;100.00;115900.28;6245879;23;20039;-85
2023/07/06 03:51:31;;;;;;;13.85;8.70;;;;;;;-142.57;100.00;115900.28;6245713;23;20004;-85
2023/07/06 03:54:06;;;;;;;18.27;7.82;;;;;;;-142.57;100.00;115900.28;6246204;23;20007;-86
2023/07/06 03:56:32;;;;;;;21.17;10.07;;;;;;;-142.57;100.00;115900.28;6245914;23;20435;-84
2023/07/06 03:58:58;;;;;;;20.35;11.18;;;;;;;-142.57;100.00;115900.28;6245129;23;20004;-84
2023/07/06 04:01:27;;;;;;;20.40;11.38;;;;;;;-142.57;100.00;115900.28;6219469;23;20027;-84
2023/07/06 04:03:55;;;;;;;20.48;10.80;;;;;;;-142.57;100.00;115900.28;6246931;23;20044;-87
2023/07/06 04:06:24;;;;;;;25.23;13.70;;;;;;;-142.57;100.00;115900.28;6246050;23;20431;-85
2023/07/06 04:08:49;;;;;;;23.25;14.07;;;;;;;-142.57;100.00;115900.28;6246613;23;20019;-86
2023/07/06 04:11:15;;;;;;;24.25;14.30;;;;;;;-142.57;100.00;115900.28;6247777;23;20012;-85
2023/07/06 04:13:41;;;;;;;27.77;16.30;;;;;;;-142.57;100.00;115900.28;6247437;23;20013;-83
2023/07/06 04:16:14;;;;;;;19.77;12.32;;;;;;;-142.57;100.00;115900.28;6252455;23;20015;-83
2023/07/06 04:18:39;;;;;;;22.25;12.45;;;;;;;-142.57;100.00;115900.28;6247932;23;20487;-84
2023/07/06 04:21:05;;;;;;;19.77;10.63;;;;;;;-142.57;100.00;115900.28;6220700;23;20139;-86
2023/07/06 04:23:30;;;;;;;24.85;10.63;;;;;;;-142.57;100.00;115900.28;6247974;23;20420;-85
2023/07/06 04:25:56;;;;;;;16.33;8.82;;;;;;;-142.57;100.00;115900.28;6247404;23;20012;-84
2023/07/06 04:28:22;;;;;;;20.63;8.95;;;;;;;-142.57;100.00;115900.28;6247587;23;20014;-88
2023/07/06 04:30:49;;;;;;;30.15;9.25;;;;;;;-142.57;100.00;115900.28;6221552;23;20011;-87
2023/07/06 04:33:17;;;;;;;23.50;9.20;;;;;;;-142.57;100.00;115900.28;6247550;23;20079;-84
2023/07/06 04:35:43;;;;;;;18.15;9.60;;;;;;;-142.57;100.00;115900.28;6220840;23;20000;-86
2023/07/06 04:38:11;;;;;;;17.17;10.18;;;;;;;-142.57;100.00;115900.28;6247686;23;20012;-86
2023/07/06 04:40:41;;;;;;;16.58;8.82;;;;;;;-142.57;100.00;115900.28;6248359;23;20016;-88
2023/07/06 04:43:08;;;;;;;22.05;8.30;;;;;;;-142.57;100.00;115900.28;6220997;23;20423;-86
2023/07/06 04:45:33;;;;;;;18.50;8.93;;;;;;;-142.57;100.00;115900.28;6247726;23;20067;-85
2023/07/06 04:48:00;;;;;;;22.45;9.80;;;;;;;-142.57;100.00;115900.28;6248277;23;20432;-88
2023/07/06 04:50:25;;;;;;;18.80;8.60;;;;;;;-142.57;100.00;115900.28;6249703;23;20012;-87
2023/07/06 04:52:55;;;;;;;15.75;8.05;;;;;;;-142.57;100.00;115900.28;6247457;23;20019;-86
2023/07/06 04:55:25;;;;;;;19.35;9.73;;;;;;;-142.57;100.00;115900.28;6247577;23;20012;-86
2023/07/06 04:57:54;;;;;;;19.02;9.02;;;;;;;-142.57;100.00;115900.28;6197908;23;20016;-88
2023/07/06 05:00:24;;;;;;;17.55;7.78;;;;;;;-142.57;100.00;115900.28;6220818;23;20014;-86
2023/07/06 05:02:53;;;;;;;16.20;6.72;;;;;;;-142.57;100.00;115900.28;6250143;23;20008;-87
2023/07/06 05:05:20;;;;;;;21.40;7.45;;;;;;;-142.57;100.00;115900.28;6251975;23;20015;-86
2023/07/06 05:07:46;;;;;;;17.70;7.28;;;;;;;-142.57;100.00;115900.28;6202399;23;20027;-85
2023/07/06 05:10:14;;;;;;;19.42;6.80;;;;;;;-142.57;100.00;115900.28;6227202;23;20008;-86
2023/07/06 05:12:40;;;;;;;25.48;7.97;;;;;;;-142.57;100.00;115900.28;6250459;23;20075;-85
2023/07/06 05:15:12;;;;;;;13.43;7.10;;;;;;;-142.57;100.00;115900.28;6253343;23;20335;-86
2023/07/06 05:17:39;;;;;;;23.27;7.85;;;;;;;-142.57;100.00;115900.28;6251465;23;20015;-83
2023/07/06 05:20:14;;;;;;;14.07;7.13;;;;;;;-142.57;100.00;115900.28;6255877;23;20020;-85
2023/07/06 05:22:42;;;;;;;21.65;6.90;;;;;;;-142.57;100.00;115900.28;6255605;23;20019;-85
2023/07/06 05:25:19;;;;;;;18.17;7.20;;;;;;;-142.57;100.00;115900.28;6234414;23;20435;-86
2023/07/06 05:27:47;;;;;;;22.33;7.15;;;;;;;-142.57;100.00;115900.28;6228302;23;20012;-83
2023/07/06 05:30:13;;;;;;;24.75;6.95;;;;;;;-142.57;100.00;115900.28;6227440;23;20036;-84
2023/07/06 05:32:39;;;;;;;15.07;7.20;;;;;;;-142.57;100.00;115900.28;6252940;23;20020;-88
2023/07/06 05:35:05;;;;;;;18.38;6.80;;;;;;;-142.57;100.00;115900.28;6227703;23;20024;-84
2023/07/06 05:37:33;;;;;;;19.65;7.05;;;;;;;-142.57;100.00;115900.28;6249267;23;20079;-86
2023/07/06 05:40:02;;;;;;;17.30;6.35;;;;;;;-142.57;100.00;115900.28;6224462;23;20043;-87
2023/07/06 05:42:27;;;;;;;14.85;6.47;;;;;;;-142.57;100.00;115900.28;6226434;23;20016;-84
2023/07/06 05:44:54;;;;;;;19.95;6.22;;;;;;;-142.57;100.00;115900.28;6267501;23;20004;-85
2023/07/06 05:51:10;;;;;;;17.35;5.70;;;;;;;-142.57;100.00;115900.28;6273146;22;20063;-86
2023/07/06 05:57:19;;;;;;;15.18;5.13;;;;;;;-142.57;98.52;115900.28;6272788;22;20031;-90
2023/07/06 05:59:45;;;;;;;14.63;5.85;;;;;;;-142.57;99.76;115900.28;6200039;23;20445;-85
2023/07/06 06:02:16;;;;;;;17.33;5.90;;;;;;;-142.57;100.00;115900.28;6199146;23;20004;-85
2023/07/06 06:04:48;;;;;;;10.40;5.70;;;;;;;-142.57;100.00;115900.28;6252343;23;20110;-87
2023/07/06 06:07:15;;;;;;;15.25;7.70;;;;;;;-142.57;99.12;115900.28;6250424;23;20015;-88
2023/07/06 06:09:41;;;;;;;15.25;6.75;;;;;;;-142.57;100.00;115900.28;6196064;23;20020;-87
2023/07/06 06:12:08;;;;;;;19.35;7.30;;;;;;;-142.57;100.00;115900.28;6245676;23;20015;-84
2023/07/06 06:14:39;;;;;;;19.23;8.27;;;;;;;-142.57;100.00;115900.28;6246707;23;20078;-84
2023/07/06 06:17:05;;;;;;;21.60;7.07;;;;;;;-142.57;100.00;115900.28;6223699;23;20435;-85
2023/07/06 06:19:37;;;;;;;21.27;7.63;;;;;;;-142.57;100.00;115900.28;6249222;23;20039;-88
2023/07/06 06:22:05;;;;;;;18.88;7.10;;;;;;;-142.57;100.00;115900.28;6196815;23;20016;-87
2023/07/06 06:24:30;;;;;;;9.50;5.85;;;;;;;-142.57;97.27;115900.28;6224209;23;20083;-85
2023/07/06 06:26:56;;;;;;;14.70;6.15;;;;;;;-142.57;95.02;115900.28;6225067;23;20075;-85
2023/07/06 06:29:23;;;;;;;15.20;6.35;;;;;;;-142.57;94.45;115900.28;6224633;23;20017;-84
2023/07/06 06:31:50;;;;;;;14.82;5.80;;;;;;;-142.57;95.28;115900.28;6199133;23;20072;-87
2023/07/06 06:34:15;;;;;;;13.77;6.70;;;;;;;-142.57;93.05;115900.28;6250458;23;20007;-86
2023/07/06 06:36:42;;;;;;;14.60;6.57;;;;;;;-142.57;91.10;115900.28;6257728;23;20008;-84
2023/07/06 06:39:09;;;;;;;14.02;6.03;;;;;;;-142.57;89.67;115900.28;6257468;23;20083;-84
2023/07/06 06:41:38;;;;;;;10.30;6.13;;;;;;;-142.57;86.41;115900.28;6233188;23;20016;-84
2023/07/06 06:44:06;;;;;;;15.32;6.15;;;;;;;-142.57;88.90;115900.28;6232380;23;20507;-87
2023/07/06 06:46:32;;;;;;;15.63;6.28;;;;;;;-142.57;84.61;115900.28;6249364;23;20016;-81
2023/07/06 06:48:57;;;;;;;10.63;5.20;;;;;;;-142.57;84.61;115900.28;6257028;23;20481;-87
2023/07/06 06:51:24;;;;;;;8.45;4.63;;;;;;;-142.57;83.37;115900.28;6199772;23;20020;-86
2023/07/06 06:53:53;;;;;;;10.60;4.53;;;;;;;-142.57;84.44;115900.28;6218659;23;20012;-87
2023/07/06 06:56:19;;;;;;;11.88;4.43;;;;;;;-142.57;79.03;115900.28;6253429;23;20008;-87
2023/07/06 06:58:46;;;;;;;9.23;4.10;;;;;;;-142.57;73.41;115900.28;6225711;23;20012;-85
2023/07/06 07:01:13;;;;;;;11.68;3.78;;;;;;;-142.57;74.46;115900.28;6253312;23;20036;-85
2023/07/06 07:03:39;;;;;;;5.88;2.97;;;;;;;-142.57;71.83;115900.28;6252611;23;20498;-86
2023/07/06 07:06:13;;;;;;;5.38;3.13;;;;;;;-142.57;70.65;115900.28;6226999;23;20035;-86
2023/07/06 07:08:39;;;;;;;7.38;2.97;;;;;;;-142.57;70.69;115900.28;6250159;23;20347;-87
2023/07/06 07:11:05;;;;;;;7.15;3.13;;;;;;;-142.57;71.34;115900.28;6250139;23;20036;-85
2023/07/06 07:13:31;;;;;;;5.40;3.08;;;;;;;-142.57;71.48;115900.28;6247724;23;20386;-88
2023/07/06 07:15:56;;;;;;;8.45;2.85;;;;;;;-142.57;74.20;115900.28;6247115;23;20008;-87
2023/07/06 07:18:25;;;;;;;6.35;2.70;;;;;;;-142.57;71.06;115900.28;6247094;23;20011;-86
2023/07/06 07:20:52;;;;;;;7.75;2.90;;;;;;;-142.57;71.93;115900.28;6247274;23;20013;-85
2023/07/06 07:23:22;;;;;;;8.23;2.85;;;;;;;-142.57;71.73;115900.28;6247523;23;20016;-85
2023/07/06 07:25:48;;;;;;;6.72;2.80;;;;;;;-142.57;72.68;115900.28;6220644;23;20497;-85
2023/07/06 07:28:16;;;;;;;7.55;2.78;;;;;;;-142.57;70.63;115900.28;6246958;23;20091;-84
2023/07/06 07:30:56;;;;;;;4.72;2.70;;;;;;;-142.57;70.67;115900.28;6246755;23;20457;-85
2023/07/06 07:33:29;;;;;;;6.78;3.13;;;;;;;-142.57;73.78;115900.28;6195598;23;20035;-84
2023/07/06 07:35:59;;;;;;;6.95;2.38;;;;;;;-142.57;78.63;115900.28;6247087;23;20012;-83
2023/07/06 07:38:24;;;;;;;7.63;2.55;;;;;;;-142.57;79.15;115900.28;6247593;23;20012;-86
2023/07/06 07:40:58;;;;;;;9.35;2.63;;;;;;;-142.57;79.41;115900.28;6195216;23;20507;-87
2023/07/06 07:43:26;;;;;;;12.48;2.97;;;;;;;-142.57;81.36;115900.28;6220481;23;20008;-84
2023/07/06 07:45:57;;;;;;;9.13;2.60;;;;;;;-142.57;84.61;115900.28;6248722;23;20000;-85
2023/07/06 07:48:25;;;;;;;10.15;2.83;;;;;;;-142.57;84.32;115900.28;6223655;23;20036;-87
2023/07/06 07:50:53;;;;;;;6.88;2.47;;;;;;;-142.57;84.10;115900.28;6250545;23;20011;-85
2023/07/06 07:53:35;;;;;;;5.18;2.33;;;;;;;-142.57;82.54;115900.28;6252486;23;20016;-89
2023/07/06 07:56:47;;;;;;;5.82;2.38;;;;;;;-142.57;81.34;115900.28;6253450;23;20023;-85
2023/07/06 07:59:15;;;;;;;6.82;2.33;;;;;;;-142.57;81.98;115900.28;6252995;22;20008;-84
2023/07/06 08:01:47;;;;;;;4.45;1.90;;;;;;;-142.57;81.73;115900.28;6253868;23;20035;-88
2023/07/06 08:04:14;;;;;;;10.27;2.05;;;;;;;-142.57;82.49;115900.28;6253763;23;20442;-85
2023/07/06 08:06:45;;;;;;;2.90;1.67;;;;;;;-142.57;82.26;115900.28;6255460;22;20068;-87
2023/07/06 08:09:13;;;;;;;5.20;2.08;;;;;;;-142.57;81.21;115900.28;6252169;23;20012;-86
2023/07/06 08:11:45;;;;;;;3.60;1.67;;;;;;;-142.57;80.05;115900.28;6258306;22;20066;-86
2023/07/06 08:14:11;;;;;;;4.28;1.83;;;;;;;-142.57;77.76;115900.28;6257348;22;20008;-85
2023/07/06 08:16:46;;;;;;;5.25;2.20;;;;;;;-142.57;78.70;115900.28;6257827;22;20477;-86
2023/07/06 08:19:17;;;;;;;7.57;2.85;;;;;;;-142.57;80.73;115900.28;6255400;22;20012;-86
2023/07/06 08:21:45;;;;;;;8.02;3.40;;;;;;;-142.57;81.80;115900.28;6257856;22;20012;-88
2023/07/06 08:24:11;;;;;;;10.40;3.97;;;;;;;-142.57;81.88;115900.28;6252920;23;20012;-87
2023/07/06 08:26:45;;;;;;;13.82;4.53;;;;;;;-142.57;82.82;115900.28;6256229;23;20060;-86
2023/07/06 08:29:11;;;;;;;11.90;4.75;;;;;;;-142.57;82.65;115900.28;6229305;23;20008;-86
2023/07/06 08:31:45;;;;;;;10.55;3.90;;;;;;;-142.57;82.69;115900.28;6256730;23;20000;-86
2023/07/06 08:34:26;;;;;;;7.63;3.95;;;;;;;-142.57;81.50;115900.28;6254607;23;20036;-88
2023/07/06 08:36:52;;;;;;;8.93;4.72;;;;;;;-142.57;78.75;115900.28;6255411;23;20009;-86
2023/07/06 08:39:18;;;;;;;12.63;4.28;;;;;;;-142.57;79.48;115900.28;6250839;22;20016;-85
2023/07/06 08:41:52;;;;;;;5.70;3.50;;;;;;;-142.57;80.34;115900.28;6255460;22;20076;-84
2023/07/06 08:44:19;;;;;;;7.90;3.65;;;;;;;-142.57;80.73;115900.28;6250065;23;20450;-88
2023/07/06 08:46:48;;;;;;;9.77;3.85;;;;;;;-142.57;78.50;115900.28;6255009;22;20012;-86
2023/07/06 08:49:43;;;;;;;8.57;4.10;;;;;;;-142.57;77.66;115900.28;6253400;23;20014;-88
2023/07/06 08:52:14;;;;;;;7.13;3.20;;;;;;;-142.57;74.53;115900.28;6253236;23;20012;-85
2023/07/06 08:54:41;;;;;;;8.13;2.83;;;;;;;-142.57;71.81;115900.28;6252638;23;20008;-84
2023/07/06 08:57:18;;;;;;;8.73;2.80;;;;;;;-142.57;71.03;115900.28;6250763;23;20008;-87
2023/07/06 08:59:54;;;;;;;6.50;2.85;;;;;;;-142.57;67.28;115900.28;6253113;22;20013;-86
2023/07/06 09:02:28;;;;;;;5.57;2.83;;;;;;;-142.57;68.16;115900.28;6251992;22;20090;-85
2023/07/06 09:05:27;;;;;;;;;;;;;;;;;;;;;
2023/07/06 09:07:55;;;;;;;4.95;2.67;;;;;;;-142.57;71.52;115900.28;6225570;23;20012;-88
2023/07/06 09:10:25;;;;;;;4.85;2.80;;;;;;;-142.57;71.23;115900.28;6252005;22;20051;-86
2023/07/06 09:12:53;;;;;;;5.95;3.13;;;;;;;-142.57;71.96;115900.28;6250398;23;20007;-88
2023/07/06 09:15:34;;;;;;;4.70;2.65;;;;;;;-142.57;71.17;115900.28;6251144;23;20047;-88
2023/07/06 09:18:03;;;;;;;8.43;2.45;;;;;;;-142.57;73.11;115900.28;6225430;23;20004;-86
2023/07/06 09:20:50;;;;;;;5.75;2.67;;;;;;;-142.57;74.11;115900.28;6224094;23;20031;-84
2023/07/06 09:23:17;;;;;;;5.63;2.08;;;;;;;-142.57;73.43;115900.28;6248832;23;20008;-88
2023/07/06 09:25:45;;;;;;;5.32;2.55;;;;;;;-142.57;72.85;115900.28;6252483;22;20009;-86
2023/07/06 09:28:20;;;;;;;4.65;2.28;;;;;;;-142.57;72.84;115900.28;6253365;22;20011;-85
2023/07/06 09:30:48;;;;;;;3.78;2.10;;;;;;;-142.57;74.17;115900.28;6226494;23;20035;-86
2023/07/06 09:33:20;;;;;;;5.38;2.30;;;;;;;-142.57;73.47;115900.28;6252090;22;20004;-87
2023/07/06 09:35:48;;;;;;;;;;;;;;;-142.57;73.91;115900.28;6251496;23;20438;-86
2023/07/06 09:38:15;;;;;;;12.63;2.38;;;;;;;-142.57;74.42;115900.28;6251405;23;19911;-86
2023/07/06 09:40:49;;;;;;;5.57;2.13;;;;;;;-142.57;74.52;115900.28;6254167;22;20352;-87
2023/07/06 09:43:27;;;;;;;5.28;1.73;;;;;;;-142.57;74.26;115900.28;6251839;23;20023;-88
2023/07/06 09:45:54;;;;;;;11.13;1.88;;;;;;;-142.57;74.86;115900.28;6255264;23;20008;-86
2023/07/06 09:48:46;;;;;;;3.25;1.50;;;;;;;-142.57;74.13;115900.28;6251955;22;20005;-87
2023/07/06 09:51:50;;;;;;;3.35;1.50;;;;;;;-142.57;73.66;115900.28;6251086;23;20016;-88
2023/07/06 09:54:50;;;;;;;4.50;2.00;;;;;;;-142.57;74.49;115900.28;6251260;23;20436;-86
2023/07/06 09:57:16;;;;;;;7.78;2.17;;;;;;;-142.57;75.46;115900.28;6252684;23;20022;-86
2023/07/06 09:59:49;;;;;;;8.15;1.73;;;;;;;-142.57;75.43;115900.28;6251529;23;20043;-87
2023/07/06 10:02:45;;;;;;;5.75;1.25;;;;;;;-142.57;74.20;115900.28;6251327;22;20015;-88
2023/07/06 10:05:46;;;;;;;5.28;1.38;;;;;;;-142.57;74.13;115900.28;6248831;23;20008;-88
2023/07/06 10:08:20;;;;;;;11.70;1.95;;;;;;;-142.57;73.58;115900.28;6251434;22;20008;-85
2023/07/06 10:11:20;;;;;;;4.00;1.73;;;;;;;-142.57;73.14;115900.28;6250982;23;20047;-88
2023/07/06 10:14:01;;;;;;;3.88;1.48;;;;;;;-142.57;72.63;115900.28;6134094;23;20051;-87
2023/07/06 10:16:45;;;;;;;9.40;1.60;;;;;;;-142.57;73.29;115900.28;6158571;23;20021;-84
2023/07/06 10:19:25;;;;;;;5.80;1.80;;;;;;;-142.57;73.37;115900.28;6157746;23;20495;-85
2023/07/06 10:22:05;;;;;;;7.32;1.60;;;;;;;-142.57;75.02;115900.28;6158436;23;20017;-87
2023/07/06 10:24:37;;;;;;;14.40;2.47;;;;;;;-142.57;73.38;115900.28;6204726;22;20008;-84
2023/07/06 10:27:16;;;;;;;7.30;1.77;;;;;;;-142.57;72.75;115900.28;6253229;22;20070;-86
2023/07/06 10:29:53;;;;;;;4.97;2.15;;;;;;;-142.57;73.51;115900.28;6265203;22;20363;-84
2023/07/06 10:32:26;;;;;;;5.60;2.40;;;;;;;-142.57;75.19;115900.28;6259810;22;20092;-85
2023/07/06 10:35:11;;;;;;;5.68;1.60;;;;;;;-142.57;77.15;115900.28;6251990;23;20023;-84
2023/07/06 10:37:54;;;;;;;3.78;1.42;;;;;;;-142.57;77.26;115900.28;6249407;23;20074;-84
2023/07/06 10:40:35;;;;;;;;;;;;;;;;;;;;;
2023/07/06 10:43:12;;;;;;;;;;;;;;;-142.57;78.70;115900.28;6251834;22;20066;-87
2023/07/06 10:45:47;;;;;;;5.90;1.58;;;;;;;-142.57;79.50;115900.28;6223603;23;19934;-85
2023/07/06 10:48:40;;;;;;;;;;;;;;;;;;;;;
2023/07/06 10:51:22;;;;;;;5.05;1.95;;;;;;;-142.57;80.72;115900.28;6246379;23;20522;-85
2023/07/06 10:54:17;;;;;;;3.75;1.65;;;;;;;-142.57;80.05;115900.28;6246994;23;20012;-86
2023/07/06 10:57:03;;;;;;;7.15;2.67;;;;;;;-142.57;78.67;115900.28;6249466;22;20012;-86
2023/07/06 11:00:01;;;;;;;4.20;1.83;;;;;;;-142.57;78.06;115900.28;6248290;23;20020;-85
2023/07/06 11:02:48;;;;;;;;;;;;;;;;;;;;;
2023/07/06 11:05:55;;;;;;;5.90;1.83;;;;;;;-142.57;76.45;115900.28;6250932;23;20438;-85
2023/07/06 11:08:57;;;;;;;4.00;1.55;;;;;;;-142.57;76.28;115900.28;6157481;23;20026;-84
2023/07/06 11:11:49;;;;;;;2.55;1.63;;;;;;;-142.57;76.69;115900.28;6157974;23;20507;-88
2023/07/06 11:14:55;;;;;;;5.50;1.35;;;;;;;-142.57;77.37;115900.28;6070656;23;20042;-86
2023/07/06 11:17:39;;;;;;;5.90;1.50;;;;;;;-142.57;78.16;115900.28;6072117;23;20175;-86
2023/07/06 11:20:18;;;;;;;5.60;1.55;;;;;;;-142.57;78.87;115900.28;6073893;23;20015;-87
2023/07/06 11:22:50;;;;;;;5.78;1.50;;;;;;;-142.57;78.99;115900.28;6109654;23;20017;-84
2023/07/06 11:25:30;;;;;;;4.40;1.50;;;;;;;-142.57;79.10;115900.28;6134496;23;20104;-86
2023/07/06 11:28:39;;;;;;;6.25;1.90;;;;;;;-142.57;81.41;115900.28;6192323;22;20023;-85
2023/07/06 11:31:54;;;;;;;5.45;1.70;;;;;;;-142.57;81.13;115900.28;6232114;23;20503;-86
2023/07/06 11:34:59;;;;;;;8.55;2.60;;;;;;;-142.57;80.92;115900.28;6212217;23;20047;-84
2023/07/06 11:38:12;;;;;;;6.10;1.73;;;;;;;-142.57;80.92;115900.28;6218525;22;20469;-87